createdAt,value
2023-02-19T00:00:16.433Z,11.00
2023-02-19T00:03:04.903Z,14.88
2023-02-19T00:05:35.537Z,19.35
2023-02-19T00:08:04.351Z,12.13
2023-02-19T00:10:32.574Z,8.88
2023-02-19T00:13:01.229Z,9.70
2023-02-19T00:15:32.903Z,16.50
2023-02-19T00:18:02.263Z,13.95
2023-02-19T00:20:30.457Z,7.90
2023-02-19T00:22:58.975Z,10.45
2023-02-19T00:25:27.333Z,6.38
2023-02-19T00:27:55.904Z,11.65
2023-02-19T00:30:28.505Z,10.73
2023-02-19T00:32:57.302Z,8.10
2023-02-19T00:35:25.519Z,7.80
2023-02-19T00:37:54.344Z,13.45
2023-02-19T00:40:22.942Z,7.85
2023-02-19T00:42:52.163Z,10.77
2023-02-19T00:45:20.755Z,6.75
2023-02-19T00:47:49.586Z,8.20
2023-02-19T00:50:17.878Z,6.95
2023-02-19T00:52:46.482Z,6.63
2023-02-19T00:55:16.004Z,8.40
2023-02-19T00:57:44.571Z,5.68
2023-02-19T01:00:13.494Z,10.73
2023-02-19T01:02:42.103Z,3.25
2023-02-19T01:05:10.555Z,7.40
2023-02-19T01:07:39.913Z,7.60
2023-02-19T01:10:09.559Z,8.20
2023-02-19T01:12:38.130Z,8.40
2023-02-19T01:15:06.743Z,7.30
2023-02-19T01:17:36.870Z,8.05
2023-02-19T01:20:05.667Z,10.43
2023-02-19T01:22:34.485Z,8.05
2023-02-19T01:25:02.934Z,8.20
2023-02-19T01:27:31.737Z,11.35
2023-02-19T01:30:00.164Z,8.18
2023-02-19T01:32:28.863Z,7.07
2023-02-19T01:34:57.270Z,8.25
2023-02-19T01:37:25.552Z,10.63
2023-02-19T01:39:54.196Z,11.32
2023-02-19T01:42:22.643Z,8.13
2023-02-19T01:44:51.433Z,6.80
2023-02-19T01:47:21.154Z,10.65
2023-02-19T01:49:56.866Z,7.45
2023-02-19T01:52:34.448Z,11.30
2023-02-19T01:55:07.208Z,15.30
2023-02-19T01:57:43.847Z,10.27
2023-02-19T02:00:16.771Z,12.75
2023-02-19T02:02:50.577Z,6.50
2023-02-19T02:05:31.416Z,12.48
2023-02-19T02:08:22.479Z,6.53
2023-02-19T02:10:52.188Z,9.93
2023-02-19T02:13:20.669Z,8.80
2023-02-19T02:16:19.200Z,9.93
2023-02-19T02:19:02.181Z,10.30
2023-02-19T02:21:54.416Z,10.75
2023-02-19T02:24:52.920Z,9.80
2023-02-19T02:28:00.112Z,9.13
2023-02-19T02:30:37.999Z,12.50
2023-02-19T02:33:27.818Z,8.35
2023-02-19T02:35:59.315Z,11.00
2023-02-19T02:38:31.618Z,10.48
2023-02-19T02:41:00.740Z,8.93
2023-02-19T02:43:29.872Z,11.50
2023-02-19T02:45:58.843Z,9.63
2023-02-19T02:49:05.391Z,16.00
2023-02-19T02:51:40.781Z,10.23
2023-02-19T02:54:39.735Z,12.23
2023-02-19T02:57:15.009Z,10.77
2023-02-19T03:02:26.421Z,6.07
2023-02-19T03:05:22.740Z,9.43
2023-02-19T03:10:53.547Z,7.82
2023-02-19T03:13:53.726Z,6.93
2023-02-19T03:16:48.879Z,14.27
2023-02-19T03:19:19.654Z,12.70
2023-02-19T03:22:16.080Z,17.30
2023-02-19T03:25:13.128Z,8.85
2023-02-19T03:27:44.396Z,8.75
2023-02-19T03:30:19.285Z,8.77
2023-02-19T03:33:09.934Z,8.68
2023-02-19T03:35:47.333Z,9.88
2023-02-19T03:38:27.461Z,11.35
2023-02-19T03:41:04.564Z,6.50
2023-02-19T03:43:46.685Z,8.52
2023-02-19T03:46:34.571Z,12.55
2023-02-19T03:49:17.147Z,10.45
2023-02-19T03:51:58.748Z,8.90
2023-02-19T03:55:12.537Z,8.18
2023-02-19T03:57:56.634Z,9.73
2023-02-19T04:00:40.842Z,8.65
2023-02-19T04:03:34.878Z,10.60
2023-02-19T04:06:07.852Z,10.10
2023-02-19T04:08:39.951Z,7.50
2023-02-19T04:11:10.594Z,12.10
2023-02-19T04:13:50.241Z,7.38
2023-02-19T04:16:22.689Z,10.05
2023-02-19T04:18:54.748Z,9.88
2023-02-19T04:21:24.311Z,9.48
2023-02-19T04:23:52.731Z,9.35
2023-02-19T04:26:22.936Z,8.80
2023-02-19T04:28:52.306Z,11.97
2023-02-19T04:31:21.050Z,5.65
2023-02-19T04:33:49.328Z,8.65
2023-02-19T04:36:17.875Z,12.65
2023-02-19T04:38:46.144Z,7.95
2023-02-19T04:41:14.856Z,8.02
2023-02-19T04:43:43.163Z,7.65
2023-02-19T04:46:11.748Z,10.13
2023-02-19T04:48:40.150Z,8.00
2023-02-19T04:51:10.870Z,8.85
2023-02-19T04:53:39.432Z,9.45
2023-02-19T04:56:14.098Z,8.55
2023-02-19T04:58:43.258Z,9.35
2023-02-19T05:01:12.646Z,8.68
2023-02-19T05:03:41.315Z,8.15
2023-02-19T05:06:14.484Z,9.70
2023-02-19T05:08:43.138Z,9.05
2023-02-19T05:11:12.918Z,7.57
2023-02-19T05:13:41.984Z,6.65
2023-02-19T05:16:16.203Z,8.52
2023-02-19T05:18:46.544Z,8.40
2023-02-19T05:21:15.550Z,10.90
2023-02-19T05:23:44.365Z,5.40
2023-02-19T05:26:19.839Z,7.40
2023-02-19T05:28:51.111Z,6.97
2023-02-19T05:31:20.824Z,10.60
2023-02-19T05:33:51.514Z,11.13
2023-02-19T05:36:22.148Z,11.13
2023-02-19T05:38:55.325Z,7.32
2023-02-19T05:41:28.882Z,8.63
2023-02-19T05:43:58.131Z,10.30
2023-02-19T05:46:29.931Z,12.23
2023-02-19T05:49:00.004Z,10.05
2023-02-19T05:51:28.708Z,6.10
2023-02-19T05:53:57.713Z,10.93
2023-02-19T05:56:38.620Z,10.07
2023-02-19T05:59:15.248Z,7.50
2023-02-19T06:01:44.545Z,12.27
2023-02-19T06:04:14.238Z,6.82
2023-02-19T06:06:42.853Z,11.18
2023-02-19T06:09:11.426Z,7.43
2023-02-19T06:11:40.825Z,12.27
2023-02-19T06:14:11.144Z,8.32
2023-02-19T06:16:40.045Z,8.38
2023-02-19T06:19:08.310Z,8.40
2023-02-19T06:21:37.140Z,6.18
2023-02-19T06:24:09.557Z,9.40
2023-02-19T06:26:38.625Z,9.30
2023-02-19T06:29:06.952Z,13.73
2023-02-19T06:31:35.790Z,13.80
2023-02-19T06:34:05.382Z,6.57
2023-02-19T06:36:34.487Z,8.35
2023-02-19T06:39:04.887Z,9.38
2023-02-19T06:41:33.892Z,9.75
2023-02-19T06:44:02.296Z,10.77
2023-02-19T06:46:31.182Z,8.38
2023-02-19T06:48:59.477Z,10.45
2023-02-19T06:51:29.876Z,9.23
2023-02-19T06:53:58.742Z,10.63
2023-02-19T06:56:28.773Z,6.93
2023-02-19T06:59:00.015Z,9.25
2023-02-19T07:01:30.813Z,10.27
2023-02-19T07:03:59.486Z,4.53
2023-02-19T07:06:30.227Z,7.90
2023-02-19T07:08:59.600Z,9.02
2023-02-19T07:11:31.412Z,7.38
2023-02-19T07:14:02.005Z,13.02
2023-02-19T07:16:31.545Z,10.80
2023-02-19T07:19:00.908Z,10.65
2023-02-19T07:21:30.113Z,13.30
2023-02-19T07:23:58.853Z,18.00
2023-02-19T07:26:27.406Z,10.88
2023-02-19T07:28:56.220Z,11.32
2023-02-19T07:31:25.223Z,7.90
2023-02-19T07:33:53.995Z,10.68
2023-02-19T07:36:24.454Z,13.18
2023-02-19T07:38:57.853Z,9.65
2023-02-19T07:41:27.656Z,14.43
2023-02-19T07:43:59.256Z,11.77
2023-02-19T07:46:28.401Z,8.95
2023-02-19T07:48:56.687Z,6.50
2023-02-19T07:51:25.252Z,15.38
2023-02-19T07:53:53.586Z,15.63
2023-02-19T07:56:24.633Z,8.52
2023-02-19T07:58:54.319Z,12.55
2023-02-19T08:01:44.959Z,13.20
2023-02-19T08:04:14.647Z,17.75
2023-02-19T08:06:44.548Z,20.33
2023-02-19T08:09:13.061Z,15.80
2023-02-19T08:12:00.064Z,17.13
2023-02-19T08:14:28.676Z,15.77
2023-02-19T08:16:57.371Z,8.30
2023-02-19T08:19:26.162Z,14.88
2023-02-19T08:21:54.862Z,17.35
2023-02-19T08:24:23.351Z,6.35
2023-02-19T08:26:52.099Z,21.10
2023-02-19T08:49:42.301Z,26.05
2023-02-19T08:52:11.475Z,15.90
2023-02-19T08:54:39.682Z,13.68
2023-02-19T08:57:08.424Z,11.57
2023-02-19T08:59:36.798Z,14.90
2023-02-19T09:02:05.383Z,14.27
2023-02-19T09:04:33.651Z,10.77
2023-02-19T09:07:02.370Z,23.92
2023-02-19T09:09:30.652Z,16.35
2023-02-19T09:11:59.405Z,11.13
2023-02-19T09:14:27.784Z,10.95
2023-02-19T09:16:56.819Z,9.90
2023-02-19T09:19:33.492Z,17.45
2023-02-19T09:22:06.468Z,8.13
2023-02-19T09:24:38.684Z,9.25
2023-02-19T09:27:07.921Z,6.78
2023-02-19T09:29:36.257Z,10.20
2023-02-19T09:32:05.061Z,11.55
2023-02-19T09:34:33.387Z,10.73
2023-02-19T09:37:02.021Z,12.38
2023-02-19T09:39:30.331Z,7.85
2023-02-19T09:42:11.672Z,6.53
2023-02-19T09:44:43.742Z,9.00
2023-02-19T09:47:21.767Z,5.00
2023-02-19T09:49:54.287Z,9.63
2023-02-19T09:52:49.177Z,6.88
2023-02-19T09:55:20.902Z,7.05
2023-02-19T09:57:51.584Z,9.73
2023-02-19T10:00:23.026Z,17.05
2023-02-19T10:03:07.026Z,12.70
2023-02-19T10:05:35.653Z,12.23
2023-02-19T10:08:07.429Z,13.43
2023-02-19T10:10:37.346Z,10.20
2023-02-19T10:13:19.358Z,7.47
2023-02-19T10:15:54.741Z,10.05
2023-02-19T10:18:28.439Z,13.75
2023-02-19T10:20:57.888Z,10.43
2023-02-19T10:23:26.719Z,8.25
2023-02-19T10:26:00.318Z,9.43
2023-02-19T10:28:34.955Z,5.35
2023-02-19T10:31:07.348Z,12.23
2023-02-19T10:33:58.019Z,7.60
2023-02-19T10:36:33.119Z,9.18
2023-02-19T10:39:07.124Z,8.93
2023-02-19T10:41:44.044Z,5.68
2023-02-19T10:44:22.310Z,6.70
2023-02-19T10:46:55.599Z,5.78
2023-02-19T10:49:31.603Z,5.43
2023-02-19T10:52:18.036Z,4.38
2023-02-19T10:54:51.156Z,5.43
2023-02-19T10:57:19.688Z,7.35
2023-02-19T10:59:52.311Z,9.05
2023-02-19T11:02:21.747Z,8.45
2023-02-19T11:05:16.736Z,5.03
2023-02-19T11:07:58.089Z,3.85
2023-02-19T11:10:28.526Z,3.53
2023-02-19T11:13:00.387Z,3.75
2023-02-19T11:15:32.633Z,2.45
2023-02-19T11:18:13.713Z,5.05
2023-02-19T11:21:04.024Z,5.80
2023-02-19T11:24:18.818Z,4.80
2023-02-19T11:27:18.093Z,6.20
2023-02-19T11:29:46.700Z,4.47
2023-02-19T11:32:21.426Z,3.55
2023-02-19T11:34:49.849Z,5.30
2023-02-19T11:37:21.289Z,8.35
2023-02-19T11:39:51.812Z,9.20
2023-02-19T11:42:35.691Z,5.95
2023-02-19T11:45:20.482Z,10.70
2023-02-19T11:48:11.479Z,6.35
2023-02-19T11:51:00.043Z,7.50
2023-02-19T11:53:48.060Z,5.30
2023-02-19T11:56:23.767Z,7.93
2023-02-19T11:59:15.818Z,6.65
2023-02-19T12:02:13.195Z,5.20
2023-02-19T12:04:58.978Z,9.63
2023-02-19T12:07:49.998Z,2.55
2023-02-19T12:10:24.703Z,5.85
2023-02-19T12:13:21.154Z,1.77
2023-02-19T12:16:13.661Z,2.90
2023-02-19T12:19:15.412Z,5.13
2023-02-19T12:31:14.624Z,5.28
2023-02-19T12:33:43.350Z,3.42
2023-02-19T12:43:15.941Z,4.05
2023-02-19T12:45:52.562Z,4.63
2023-02-19T12:48:47.506Z,5.68
2023-02-19T12:51:49.009Z,3.90
2023-02-19T12:57:31.742Z,3.75
2023-02-19T13:00:23.803Z,3.38
2023-02-19T13:06:18.759Z,5.05
2023-02-19T13:09:07.641Z,3.15
2023-02-19T13:11:42.890Z,3.50
2023-02-19T13:14:54.806Z,1.75
2023-02-19T13:17:39.133Z,3.25
2023-02-19T13:20:39.176Z,4.40
2023-02-19T13:23:32.460Z,4.20
2023-02-19T13:26:29.867Z,2.67
2023-02-19T13:36:01.260Z,5.07
2023-02-19T13:38:30.368Z,2.67
2023-02-19T13:41:00.356Z,1.88
2023-02-19T13:43:39.389Z,4.90
2023-02-19T13:46:14.911Z,4.55
2023-02-19T13:48:53.454Z,4.35
2023-02-19T13:51:49.657Z,2.10
2023-02-19T13:54:40.493Z,2.88
2023-02-19T13:57:18.190Z,6.82
2023-02-19T13:59:48.402Z,2.72
2023-02-19T14:02:29.005Z,1.58
2023-02-19T14:05:07.684Z,3.42
2023-02-19T14:07:50.692Z,3.40
2023-02-19T14:11:09.738Z,3.53
2023-02-19T14:13:50.992Z,3.47
2023-02-19T14:16:49.604Z,2.90
2023-02-19T14:20:14.180Z,4.57
2023-02-19T14:23:01.918Z,3.28
2023-02-19T14:25:40.833Z,5.47
2023-02-19T14:28:24.185Z,3.75
2023-02-19T14:30:52.511Z,2.17
2023-02-19T14:33:46.244Z,3.35
2023-02-19T14:36:50.307Z,3.83
2023-02-19T14:39:23.748Z,2.60
2023-02-19T14:41:56.588Z,2.20
2023-02-19T14:44:28.819Z,1.05
2023-02-19T14:47:04.232Z,4.22
2023-02-19T14:50:00.543Z,2.72
2023-02-19T14:52:37.128Z,2.55
2023-02-19T14:55:50.979Z,4.28
2023-02-19T14:58:24.977Z,3.85
2023-02-19T15:00:53.598Z,1.45
2023-02-19T15:03:26.661Z,2.30
2023-02-19T15:06:06.204Z,1.35
2023-02-19T15:08:44.128Z,1.60
2023-02-19T15:11:20.082Z,4.20
2023-02-19T15:13:59.387Z,1.95
2023-02-19T15:16:29.982Z,1.90
2023-02-19T15:19:00.570Z,2.40
2023-02-19T15:21:32.450Z,6.50
2023-02-19T15:24:04.287Z,1.95
2023-02-19T15:26:41.151Z,2.10
2023-02-19T15:29:13.221Z,3.28
2023-02-19T15:31:51.145Z,1.65
2023-02-19T15:34:23.555Z,0.38
2023-02-19T15:36:58.352Z,1.23
2023-02-19T15:39:33.892Z,3.05
2023-02-19T15:42:05.660Z,2.92
2023-02-19T15:45:00.378Z,2.85
2023-02-19T15:47:33.592Z,1.42
2023-02-19T15:50:29.978Z,2.67
2023-02-19T15:53:17.109Z,11.30
2023-02-19T15:55:55.073Z,3.35
2023-02-19T15:58:33.328Z,4.88
2023-02-19T16:01:05.316Z,3.65
2023-02-19T16:03:36.019Z,5.10
2023-02-19T16:06:36.141Z,2.58
2023-02-19T16:10:03.174Z,3.03
2023-02-19T16:12:34.768Z,5.32
2023-02-19T16:15:15.494Z,5.53
2023-02-19T16:18:14.215Z,4.18
2023-02-19T16:20:48.055Z,1.67
2023-02-19T16:23:20.838Z,2.10
2023-02-19T16:25:49.479Z,2.20
2023-02-19T16:28:24.194Z,1.92
2023-02-19T16:31:07.487Z,1.60
2023-02-19T16:33:48.375Z,2.50
2023-02-19T16:36:38.060Z,6.43
2023-02-19T16:39:09.356Z,1.55
2023-02-19T16:42:15.903Z,5.53
2023-02-19T16:44:44.942Z,2.63
2023-02-19T16:47:25.330Z,2.40
2023-02-19T16:49:54.432Z,1.33
2023-02-19T16:52:23.103Z,2.45
2023-02-19T16:54:51.377Z,4.35
2023-02-19T16:57:20.842Z,2.58
2023-02-19T16:59:49.211Z,5.50
2023-02-19T17:02:24.795Z,2.03
2023-02-19T17:04:55.258Z,3.88
2023-02-19T17:07:24.233Z,2.30
2023-02-19T17:11:08.403Z,3.25
2023-02-19T17:13:37.082Z,3.90
2023-02-19T17:16:05.957Z,3.70
2023-02-19T17:18:34.601Z,3.13
2023-02-19T17:21:14.101Z,5.15
2023-02-19T17:23:42.667Z,5.75
2023-02-19T17:26:25.778Z,2.55
2023-02-19T17:28:59.827Z,7.05
2023-02-19T17:31:28.989Z,8.02
2023-02-19T17:33:59.078Z,7.30
2023-02-19T17:36:30.892Z,6.05
2023-02-19T17:39:01.780Z,3.17
2023-02-19T17:41:30.738Z,6.00
2023-02-19T17:43:59.659Z,11.25
2023-02-19T17:46:28.083Z,6.28
2023-02-19T17:48:56.805Z,6.93
2023-02-19T17:51:25.177Z,9.50
2023-02-19T17:53:53.900Z,7.80
2023-02-19T17:56:25.479Z,13.40
2023-02-19T17:58:58.308Z,21.60
2023-02-19T18:01:26.744Z,17.70
2023-02-19T18:04:23.846Z,15.45
2023-02-19T18:06:54.041Z,26.15
2023-02-19T18:09:23.310Z,20.38
2023-02-19T18:11:51.766Z,19.23
2023-02-19T18:14:20.495Z,15.88
2023-02-19T18:16:50.376Z,10.75
2023-02-19T18:19:19.350Z,10.77
2023-02-19T18:21:48.017Z,14.13
2023-02-19T18:24:16.897Z,19.63
2023-02-19T18:29:56.146Z,14.68
2023-02-19T18:32:28.279Z,11.95
2023-02-19T18:34:59.142Z,10.80
2023-02-19T18:37:30.508Z,7.28
2023-02-19T18:40:00.460Z,6.65
2023-02-19T18:42:28.865Z,3.03
2023-02-19T18:49:08.952Z,11.50
2023-02-19T18:56:28.032Z,13.60
2023-02-19T19:03:17.975Z,8.18
2023-02-19T19:06:14.873Z,6.50
2023-02-19T19:15:25.094Z,13.50
2023-02-19T19:24:57.846Z,13.88
2023-02-19T19:28:02.875Z,9.05
2023-02-19T19:31:56.524Z,9.93
2023-02-19T19:35:21.063Z,11.65
2023-02-19T19:44:41.000Z,7.68
2023-02-19T20:03:19.865Z,12.02
2023-02-19T20:09:12.444Z,5.07
2023-02-19T20:20:55.485Z,8.38
2023-02-19T20:23:29.170Z,10.40
2023-02-19T20:26:09.208Z,3.15
2023-02-19T20:29:53.631Z,9.90
2023-02-19T20:33:12.970Z,7.95
2023-02-19T20:39:05.905Z,11.85
2023-02-19T20:42:08.372Z,4.68
2023-02-19T20:45:06.077Z,4.45
2023-02-19T20:48:02.346Z,1.58
2023-02-19T20:51:38.663Z,3.08
2023-02-19T21:01:21.878Z,5.32
2023-02-19T21:04:19.200Z,3.97
2023-02-19T21:16:51.925Z,5.30
2023-02-19T21:20:11.720Z,4.32
2023-02-19T21:23:02.202Z,5.72
2023-02-19T21:26:31.407Z,6.70
2023-02-19T21:29:55.598Z,6.68
2023-02-19T21:32:24.337Z,1.90
2023-02-19T21:38:07.045Z,5.68
2023-02-19T21:41:22.381Z,5.47
2023-02-19T21:46:46.113Z,3.42
2023-02-19T21:49:15.746Z,7.35
2023-02-19T21:52:17.127Z,6.38
2023-02-19T21:57:54.092Z,3.92
2023-02-19T22:00:52.495Z,2.00
2023-02-19T22:03:30.102Z,2.33
2023-02-19T22:10:18.958Z,2.58
2023-02-19T22:12:48.404Z,2.13
2023-02-19T22:15:17.167Z,3.30
2023-02-19T22:18:10.886Z,3.13
2023-02-19T22:22:03.968Z,3.20
2023-02-19T22:24:32.820Z,1.95
2023-02-19T22:27:03.514Z,1.50
2023-02-19T22:29:57.899Z,3.60
2023-02-19T22:32:26.321Z,6.00
2023-02-19T22:34:54.994Z,5.05
2023-02-19T22:37:23.584Z,4.07
2023-02-19T22:39:52.393Z,2.58
2023-02-19T22:42:46.858Z,4.88
2023-02-19T22:45:17.281Z,2.67
2023-02-19T22:47:47.029Z,3.53
2023-02-19T22:50:22.510Z,3.50
2023-02-19T22:52:54.477Z,7.22
2023-02-19T22:55:23.384Z,5.85
2023-02-19T22:57:51.621Z,1.38
2023-02-19T23:00:21.788Z,2.40
2023-02-19T23:03:18.489Z,3.58
2023-02-19T23:05:51.783Z,9.93
2023-02-19T23:08:24.221Z,5.28
2023-02-19T23:10:52.877Z,4.82
2023-02-19T23:13:22.336Z,7.22
2023-02-19T23:15:51.322Z,5.57
2023-02-19T23:18:19.587Z,5.03
2023-02-19T23:20:52.143Z,5.13
2023-02-19T23:23:22.239Z,6.57
2023-02-19T23:25:50.927Z,6.80
2023-02-19T23:28:19.584Z,5.50
2023-02-19T23:30:48.987Z,7.75
2023-02-19T23:33:17.980Z,9.65
2023-02-19T23:35:49.083Z,8.90
2023-02-19T23:38:17.410Z,5.82
2023-02-19T23:40:46.055Z,5.07
2023-02-19T23:43:14.689Z,11.32
2023-02-19T23:45:43.533Z,3.30
2023-02-19T23:48:12.407Z,5.85
2023-02-19T23:51:05.893Z,5.03
2023-02-19T23:53:34.340Z,5.35
2023-02-19T23:56:02.963Z,6.07
2023-02-19T23:58:31.311Z,4.47
